<?xml version="1.0" encoding="UTF-8" standalone="no" ?>
<gpx xmlns="http://www.topografix.com/GPX/1/1" xmlns:xsi="http://www.w3.org/2001/XMLSchema-instance" xsi:schemaLocation="http://www.topografix.com/GPX/1/1 http://www.topografix.com/GPX/1/1/gpx.xsd" version="1.1" creator="VisuGPX - https://www.visugpx.com">
  <metadata>
    <name>Veulettes_les petites dalles</name>
    <desc><![CDATA[Mélange de chemins et de routes de campagne.]]></desc>
  </metadata>
  <trk>
    <name><![CDATA[OR-6351598--Veulettes-sur-Mer:Veulettes - les petites dalles]]></name>
    <trkseg>
      <trkpt lat="49.85345" lon="0.60251">
        <ele>3</ele>
        <time>2016-07-22T09:44:23Z</time>
      </trkpt>
      <trkpt lat="49.85299" lon="0.60035">
        <ele>8</ele>
        <time>2016-07-22T09:46:23Z</time>
      </trkpt>
      <trkpt lat="49.85279" lon="0.59751">
        <ele>5</ele>
        <time>2016-07-22T09:48:23Z</time>
      </trkpt>
      <trkpt lat="49.85281" lon="0.59655">
        <ele>3</ele>
        <time>2016-07-22T09:50:23Z</time>
      </trkpt>
      <trkpt lat="49.85256" lon="0.59642">
        <ele>5</ele>
        <time>2016-07-22T09:52:23Z</time>
      </trkpt>
      <trkpt lat="49.85223" lon="0.59644">
        <ele>6</ele>
        <time>2016-07-22T09:54:23Z</time>
      </trkpt>
      <trkpt lat="49.85155" lon="0.5964">
        <ele>7</ele>
        <time>2016-07-22T09:56:23Z</time>
      </trkpt>
      <trkpt lat="49.8505" lon="0.59642">
        <ele>9</ele>
        <time>2016-07-22T09:58:23Z</time>
      </trkpt>
      <trkpt lat="49.84956" lon="0.5965">
        <ele>9</ele>
        <time>2016-07-22T10:00:23Z</time>
      </trkpt>
      <trkpt lat="49.84834" lon="0.5959">
        <ele>8</ele>
        <time>2016-07-22T10:02:23Z</time>
      </trkpt>
      <trkpt lat="49.84797" lon="0.59552">
        <ele>11</ele>
        <time>2016-07-22T10:04:23Z</time>
      </trkpt>
      <trkpt lat="49.84765" lon="0.59462">
        <ele>11</ele>
        <time>2016-07-22T10:06:23Z</time>
      </trkpt>
      <trkpt lat="49.84731" lon="0.59391">
        <ele>11</ele>
        <time>2016-07-22T10:08:23Z</time>
      </trkpt>
      <trkpt lat="49.84671" lon="0.59341">
        <ele>10</ele>
        <time>2016-07-22T10:10:23Z</time>
      </trkpt>
      <trkpt lat="49.84637" lon="0.59314">
        <ele>12</ele>
        <time>2016-07-22T10:12:23Z</time>
      </trkpt>
      <trkpt lat="49.84561" lon="0.59344">
        <ele>13</ele>
        <time>2016-07-22T10:14:23Z</time>
      </trkpt>
      <trkpt lat="49.84502" lon="0.59402">
        <ele>13</ele>
        <time>2016-07-22T10:16:23Z</time>
      </trkpt>
      <trkpt lat="49.84457" lon="0.59311">
        <ele>19</ele>
        <time>2016-07-22T10:18:23Z</time>
      </trkpt>
      <trkpt lat="49.84404" lon="0.59275">
        <ele>26</ele>
        <time>2016-07-22T10:20:23Z</time>
      </trkpt>
      <trkpt lat="49.84347" lon="0.59247">
        <ele>34</ele>
        <time>2016-07-22T10:22:23Z</time>
      </trkpt>
      <trkpt lat="49.84285" lon="0.5914">
        <ele>46</ele>
        <time>2016-07-22T10:24:23Z</time>
      </trkpt>
      <trkpt lat="49.84238" lon="0.59022">
        <ele>56</ele>
        <time>2016-07-22T10:26:23Z</time>
      </trkpt>
      <trkpt lat="49.84201" lon="0.58831">
        <ele>65</ele>
        <time>2016-07-22T10:28:23Z</time>
      </trkpt>
      <trkpt lat="49.84155" lon="0.58612">
        <ele>69</ele>
        <time>2016-07-22T10:30:23Z</time>
      </trkpt>
      <trkpt lat="49.84035" lon="0.5852">
        <ele>66</ele>
        <time>2016-07-22T10:32:23Z</time>
      </trkpt>
      <trkpt lat="49.84155" lon="0.58382">
        <ele>75</ele>
        <time>2016-07-22T10:34:23Z</time>
      </trkpt>
      <trkpt lat="49.83394" lon="0.567">
        <ele>82</ele>
        <time>2016-07-22T10:36:23Z</time>
      </trkpt>
      <trkpt lat="49.83148" lon="0.56524">
        <ele>83</ele>
        <time>2016-07-22T10:38:23Z</time>
      </trkpt>
      <trkpt lat="49.82968" lon="0.56438">
        <ele>81</ele>
        <time>2016-07-22T10:40:23Z</time>
      </trkpt>
      <trkpt lat="49.83056" lon="0.56224">
        <ele>82</ele>
        <time>2016-07-22T10:42:23Z</time>
      </trkpt>
      <trkpt lat="49.83089" lon="0.56134">
        <ele>80</ele>
        <time>2016-07-22T10:44:23Z</time>
      </trkpt>
      <trkpt lat="49.83164" lon="0.5588">
        <ele>81</ele>
        <time>2016-07-22T10:46:23Z</time>
      </trkpt>
      <trkpt lat="49.83189" lon="0.55627">
        <ele>77</ele>
        <time>2016-07-22T10:48:23Z</time>
      </trkpt>
      <trkpt lat="49.83031" lon="0.55546">
        <ele>81</ele>
        <time>2016-07-22T10:50:23Z</time>
      </trkpt>
      <trkpt lat="49.82954" lon="0.55481">
        <ele>82</ele>
        <time>2016-07-22T10:52:23Z</time>
      </trkpt>
      <trkpt lat="49.82804" lon="0.55219">
        <ele>87</ele>
        <time>2016-07-22T10:54:23Z</time>
      </trkpt>
      <trkpt lat="49.82743" lon="0.55129">
        <ele>88</ele>
        <time>2016-07-22T10:56:23Z</time>
      </trkpt>
      <trkpt lat="49.8268" lon="0.54971">
        <ele>88</ele>
        <time>2016-07-22T10:58:23Z</time>
      </trkpt>
      <trkpt lat="49.82646" lon="0.54807">
        <ele>87</ele>
        <time>2016-07-22T11:00:23Z</time>
      </trkpt>
      <trkpt lat="49.82583" lon="0.54606">
        <ele>88</ele>
        <time>2016-07-22T11:02:23Z</time>
      </trkpt>
      <trkpt lat="49.82536" lon="0.54391">
        <ele>89</ele>
        <time>2016-07-22T11:04:23Z</time>
      </trkpt>
      <trkpt lat="49.82503" lon="0.54185">
        <ele>90</ele>
        <time>2016-07-22T11:06:23Z</time>
      </trkpt>
      <trkpt lat="49.82503" lon="0.54061">
        <ele>89</ele>
        <time>2016-07-22T11:08:23Z</time>
      </trkpt>
      <trkpt lat="49.82491" lon="0.54005">
        <ele>89</ele>
        <time>2016-07-22T11:10:23Z</time>
      </trkpt>
      <trkpt lat="49.82489" lon="0.53844">
        <ele>86</ele>
        <time>2016-07-22T11:12:23Z</time>
      </trkpt>
      <trkpt lat="49.82442" lon="0.5387">
        <ele>87</ele>
        <time>2016-07-22T11:14:23Z</time>
      </trkpt>
      <trkpt lat="49.82305" lon="0.53537">
        <ele>77</ele>
        <time>2016-07-22T11:16:23Z</time>
      </trkpt>
      <trkpt lat="49.82325" lon="0.53499">
        <ele>77</ele>
        <time>2016-07-22T11:18:23Z</time>
      </trkpt>
      <trkpt lat="49.82328" lon="0.53462">
        <ele>76</ele>
        <time>2016-07-22T11:20:23Z</time>
      </trkpt>
      <trkpt lat="49.82293" lon="0.53419">
        <ele>70</ele>
        <time>2016-07-22T11:22:23Z</time>
      </trkpt>
      <trkpt lat="49.82244" lon="0.53374">
        <ele>64</ele>
        <time>2016-07-22T11:24:23Z</time>
      </trkpt>
      <trkpt lat="49.82206" lon="0.53286">
        <ele>60</ele>
        <time>2016-07-22T11:26:23Z</time>
      </trkpt>
      <trkpt lat="49.82197" lon="0.53224">
        <ele>57</ele>
        <time>2016-07-22T11:28:23Z</time>
      </trkpt>
      <trkpt lat="49.82163" lon="0.53136">
        <ele>50</ele>
        <time>2016-07-22T11:30:23Z</time>
      </trkpt>
      <trkpt lat="49.82159" lon="0.53044">
        <ele>47</ele>
        <time>2016-07-22T11:32:23Z</time>
      </trkpt>
      <trkpt lat="49.82194" lon="0.52936">
        <ele>41</ele>
        <time>2016-07-22T11:34:23Z</time>
      </trkpt>
      <trkpt lat="49.82226" lon="0.52853">
        <ele>34</ele>
        <time>2016-07-22T11:36:23Z</time>
      </trkpt>
      <trkpt lat="49.82511" lon="0.52696">
        <ele>31</ele>
        <time>2016-07-22T11:38:23Z</time>
      </trkpt>
      <trkpt lat="49.82529" lon="0.52672">
        <ele>31</ele>
        <time>2016-07-22T11:40:23Z</time>
      </trkpt>
      <trkpt lat="49.82577" lon="0.52501">
        <ele>10</ele>
        <time>2016-07-22T11:42:23Z</time>
      </trkpt>
      <trkpt lat="49.82527" lon="0.52458">
        <ele>10</ele>
        <time>2016-07-22T11:44:23Z</time>
      </trkpt>
      <trkpt lat="49.82476" lon="0.52512">
        <ele>16</ele>
        <time>2016-07-22T11:46:23Z</time>
      </trkpt>
      <trkpt lat="49.82385" lon="0.52312">
        <ele>36</ele>
        <time>2016-07-22T11:48:23Z</time>
      </trkpt>
      <trkpt lat="49.82278" lon="0.52469">
        <ele>48</ele>
        <time>2016-07-22T11:50:23Z</time>
      </trkpt>
      <trkpt lat="49.82134" lon="0.52475">
        <ele>67</ele>
        <time>2016-07-22T11:52:23Z</time>
      </trkpt>
      <trkpt lat="49.81978" lon="0.52426">
        <ele>79</ele>
        <time>2016-07-22T11:54:23Z</time>
      </trkpt>
      <trkpt lat="49.81943" lon="0.52387">
        <ele>82</ele>
        <time>2016-07-22T11:56:23Z</time>
      </trkpt>
      <trkpt lat="49.81821" lon="0.52409">
        <ele>81</ele>
        <time>2016-07-22T11:58:23Z</time>
      </trkpt>
      <trkpt lat="49.81694" lon="0.52451">
        <ele>84</ele>
        <time>2016-07-22T12:00:23Z</time>
      </trkpt>
      <trkpt lat="49.81561" lon="0.52569">
        <ele>81</ele>
        <time>2016-07-22T12:02:23Z</time>
      </trkpt>
      <trkpt lat="49.81507" lon="0.52636">
        <ele>75</ele>
        <time>2016-07-22T12:04:23Z</time>
      </trkpt>
      <trkpt lat="49.81448" lon="0.5267">
        <ele>74</ele>
        <time>2016-07-22T12:06:23Z</time>
      </trkpt>
      <trkpt lat="49.81365" lon="0.52778">
        <ele>72</ele>
        <time>2016-07-22T12:08:23Z</time>
      </trkpt>
      <trkpt lat="49.81298" lon="0.52945">
        <ele>72</ele>
        <time>2016-07-22T12:10:23Z</time>
      </trkpt>
      <trkpt lat="49.81214" lon="0.52915">
        <ele>78</ele>
        <time>2016-07-22T12:12:23Z</time>
      </trkpt>
      <trkpt lat="49.81086" lon="0.52803">
        <ele>83</ele>
        <time>2016-07-22T12:14:23Z</time>
      </trkpt>
      <trkpt lat="49.8088" lon="0.52726">
        <ele>88</ele>
        <time>2016-07-22T12:16:23Z</time>
      </trkpt>
      <trkpt lat="49.80786" lon="0.52885">
        <ele>92</ele>
        <time>2016-07-22T12:18:23Z</time>
      </trkpt>
      <trkpt lat="49.80564" lon="0.5316">
        <ele>94</ele>
        <time>2016-07-22T12:20:23Z</time>
      </trkpt>
      <trkpt lat="49.80514" lon="0.53125">
        <ele>95</ele>
        <time>2016-07-22T12:22:23Z</time>
      </trkpt>
      <trkpt lat="49.80492" lon="0.53018">
        <ele>93</ele>
        <time>2016-07-22T12:24:23Z</time>
      </trkpt>
      <trkpt lat="49.80409" lon="0.53108">
        <ele>90</ele>
        <time>2016-07-22T12:26:23Z</time>
      </trkpt>
      <trkpt lat="49.80334" lon="0.5316">
        <ele>88</ele>
        <time>2016-07-22T12:28:23Z</time>
      </trkpt>
      <trkpt lat="49.80329" lon="0.53357">
        <ele>84</ele>
        <time>2016-07-22T12:30:23Z</time>
      </trkpt>
      <trkpt lat="49.80309" lon="0.53473">
        <ele>83</ele>
        <time>2016-07-22T12:32:23Z</time>
      </trkpt>
      <trkpt lat="49.80343" lon="0.53627">
        <ele>75</ele>
        <time>2016-07-22T12:34:23Z</time>
      </trkpt>
      <trkpt lat="49.80356" lon="0.5373">
        <ele>59</ele>
        <time>2016-07-22T12:36:23Z</time>
      </trkpt>
      <trkpt lat="49.80387" lon="0.53825">
        <ele>55</ele>
        <time>2016-07-22T12:38:23Z</time>
      </trkpt>
      <trkpt lat="49.80575" lon="0.54026">
        <ele>52</ele>
        <time>2016-07-22T12:40:23Z</time>
      </trkpt>
      <trkpt lat="49.80689" lon="0.54099">
        <ele>53</ele>
        <time>2016-07-22T12:42:23Z</time>
      </trkpt>
      <trkpt lat="49.80797" lon="0.54087">
        <ele>47</ele>
        <time>2016-07-22T12:44:23Z</time>
      </trkpt>
      <trkpt lat="49.80916" lon="0.54147">
        <ele>46</ele>
        <time>2016-07-22T12:46:23Z</time>
      </trkpt>
      <trkpt lat="49.81046" lon="0.54155">
        <ele>44</ele>
        <time>2016-07-22T12:48:23Z</time>
      </trkpt>
      <trkpt lat="49.81007" lon="0.54426">
        <ele>70</ele>
        <time>2016-07-22T12:50:23Z</time>
      </trkpt>
      <trkpt lat="49.80874" lon="0.54739">
        <ele>79</ele>
        <time>2016-07-22T12:52:23Z</time>
      </trkpt>
      <trkpt lat="49.80869" lon="0.54803">
        <ele>81</ele>
        <time>2016-07-22T12:54:23Z</time>
      </trkpt>
      <trkpt lat="49.80982" lon="0.55237">
        <ele>89</ele>
        <time>2016-07-22T12:56:23Z</time>
      </trkpt>
      <trkpt lat="49.8086" lon="0.55267">
        <ele>90</ele>
        <time>2016-07-22T12:58:23Z</time>
      </trkpt>
      <trkpt lat="49.80858" lon="0.55503">
        <ele>88</ele>
        <time>2016-07-22T13:00:23Z</time>
      </trkpt>
      <trkpt lat="49.80829" lon="0.5558">
        <ele>90</ele>
        <time>2016-07-22T13:02:23Z</time>
      </trkpt>
      <trkpt lat="49.80827" lon="0.55981">
        <ele>90</ele>
        <time>2016-07-22T13:04:23Z</time>
      </trkpt>
      <trkpt lat="49.80718" lon="0.55996">
        <ele>91</ele>
        <time>2016-07-22T13:06:23Z</time>
      </trkpt>
      <trkpt lat="49.80805" lon="0.56619">
        <ele>83</ele>
        <time>2016-07-22T13:08:23Z</time>
      </trkpt>
      <trkpt lat="49.80764" lon="0.56698">
        <ele>81</ele>
        <time>2016-07-22T13:10:23Z</time>
      </trkpt>
      <trkpt lat="49.80736" lon="0.56803">
        <ele>78</ele>
        <time>2016-07-22T13:12:23Z</time>
      </trkpt>
      <trkpt lat="49.80734" lon="0.56855">
        <ele>77</ele>
        <time>2016-07-22T13:14:23Z</time>
      </trkpt>
      <trkpt lat="49.80806" lon="0.57056">
        <ele>79</ele>
        <time>2016-07-22T13:16:23Z</time>
      </trkpt>
      <trkpt lat="49.80837" lon="0.5732">
        <ele>86</ele>
        <time>2016-07-22T13:18:23Z</time>
      </trkpt>
      <trkpt lat="49.80999" lon="0.57314">
        <ele>87</ele>
        <time>2016-07-22T13:20:23Z</time>
      </trkpt>
      <trkpt lat="49.81088" lon="0.57408">
        <ele>84</ele>
        <time>2016-07-22T13:22:23Z</time>
      </trkpt>
      <trkpt lat="49.81107" lon="0.57494">
        <ele>84</ele>
        <time>2016-07-22T13:24:23Z</time>
      </trkpt>
      <trkpt lat="49.81212" lon="0.57747">
        <ele>82</ele>
        <time>2016-07-22T13:26:23Z</time>
      </trkpt>
      <trkpt lat="49.81387" lon="0.58181">
        <ele>84</ele>
        <time>2016-07-22T13:28:23Z</time>
      </trkpt>
      <trkpt lat="49.81287" lon="0.58322">
        <ele>88</ele>
        <time>2016-07-22T13:30:23Z</time>
      </trkpt>
      <trkpt lat="49.81401" lon="0.58515">
        <ele>86</ele>
        <time>2016-07-22T13:32:23Z</time>
      </trkpt>
      <trkpt lat="49.81218" lon="0.58914">
        <ele>84</ele>
        <time>2016-07-22T13:34:23Z</time>
      </trkpt>
      <trkpt lat="49.81068" lon="0.59052">
        <ele>86</ele>
        <time>2016-07-22T13:36:23Z</time>
      </trkpt>
      <trkpt lat="49.81063" lon="0.59133">
        <ele>85</ele>
        <time>2016-07-22T13:38:23Z</time>
      </trkpt>
      <trkpt lat="49.81162" lon="0.59374">
        <ele>82</ele>
        <time>2016-07-22T13:40:23Z</time>
      </trkpt>
      <trkpt lat="49.81251" lon="0.59687">
        <ele>80</ele>
        <time>2016-07-22T13:42:23Z</time>
      </trkpt>
      <trkpt lat="49.81467" lon="0.60043">
        <ele>75</ele>
        <time>2016-07-22T13:44:23Z</time>
      </trkpt>
      <trkpt lat="49.80949" lon="0.6018">
        <ele>90</ele>
        <time>2016-07-22T13:46:23Z</time>
      </trkpt>
      <trkpt lat="49.80877" lon="0.60211">
        <ele>93</ele>
        <time>2016-07-22T13:48:23Z</time>
      </trkpt>
      <trkpt lat="49.80775" lon="0.60374">
        <ele>98</ele>
        <time>2016-07-22T13:50:23Z</time>
      </trkpt>
      <trkpt lat="49.80736" lon="0.60421">
        <ele>96</ele>
        <time>2016-07-22T13:52:23Z</time>
      </trkpt>
      <trkpt lat="49.80794" lon="0.6055">
        <ele>94</ele>
        <time>2016-07-22T13:54:23Z</time>
      </trkpt>
      <trkpt lat="49.80833" lon="0.6076">
        <ele>96</ele>
        <time>2016-07-22T13:56:23Z</time>
      </trkpt>
      <trkpt lat="49.80614" lon="0.60803">
        <ele>95</ele>
        <time>2016-07-22T13:58:23Z</time>
      </trkpt>
      <trkpt lat="49.80592" lon="0.60983">
        <ele>85</ele>
        <time>2016-07-22T14:00:23Z</time>
      </trkpt>
      <trkpt lat="49.80512" lon="0.61116">
        <ele>80</ele>
        <time>2016-07-22T14:02:23Z</time>
      </trkpt>
      <trkpt lat="49.80622" lon="0.61262">
        <ele>67</ele>
        <time>2016-07-22T14:04:23Z</time>
      </trkpt>
      <trkpt lat="49.80661" lon="0.61386">
        <ele>69</ele>
        <time>2016-07-22T14:06:23Z</time>
      </trkpt>
      <trkpt lat="49.80711" lon="0.61374">
        <ele>69</ele>
        <time>2016-07-22T14:08:23Z</time>
      </trkpt>
      <trkpt lat="49.80877" lon="0.61322">
        <ele>61</ele>
        <time>2016-07-22T14:10:23Z</time>
      </trkpt>
      <trkpt lat="49.81096" lon="0.61489">
        <ele>59</ele>
        <time>2016-07-22T14:12:23Z</time>
      </trkpt>
      <trkpt lat="49.81376" lon="0.6161">
        <ele>52</ele>
        <time>2016-07-22T14:14:23Z</time>
      </trkpt>
      <trkpt lat="49.81547" lon="0.61635">
        <ele>51</ele>
        <time>2016-07-22T14:16:23Z</time>
      </trkpt>
      <trkpt lat="49.81722" lon="0.61747">
        <ele>45</ele>
        <time>2016-07-22T14:18:23Z</time>
      </trkpt>
      <trkpt lat="49.8188" lon="0.6179">
        <ele>43</ele>
        <time>2016-07-22T14:20:23Z</time>
      </trkpt>
      <trkpt lat="49.82037" lon="0.61755">
        <ele>39</ele>
        <time>2016-07-22T14:22:23Z</time>
      </trkpt>
      <trkpt lat="49.82084" lon="0.617">
        <ele>37</ele>
        <time>2016-07-22T14:24:23Z</time>
      </trkpt>
      <trkpt lat="49.82104" lon="0.61635">
        <ele>40</ele>
        <time>2016-07-22T14:26:23Z</time>
      </trkpt>
      <trkpt lat="49.82195" lon="0.6164">
        <ele>37</ele>
        <time>2016-07-22T14:28:23Z</time>
      </trkpt>
      <trkpt lat="49.8227" lon="0.617">
        <ele>34</ele>
        <time>2016-07-22T14:30:23Z</time>
      </trkpt>
      <trkpt lat="49.82314" lon="0.61755">
        <ele>31</ele>
        <time>2016-07-22T14:32:23Z</time>
      </trkpt>
      <trkpt lat="49.82389" lon="0.61798">
        <ele>33</ele>
        <time>2016-07-22T14:34:23Z</time>
      </trkpt>
      <trkpt lat="49.82627" lon="0.62137">
        <ele>26</ele>
        <time>2016-07-22T14:36:23Z</time>
      </trkpt>
      <trkpt lat="49.82699" lon="0.62296">
        <ele>17</ele>
        <time>2016-07-22T14:38:23Z</time>
      </trkpt>
      <trkpt lat="49.82768" lon="0.62438">
        <ele>9</ele>
        <time>2016-07-22T14:40:23Z</time>
      </trkpt>
      <trkpt lat="49.82829" lon="0.62416">
        <ele>7</ele>
        <time>2016-07-22T14:42:23Z</time>
      </trkpt>
      <trkpt lat="49.82945" lon="0.62451">
        <ele>8</ele>
        <time>2016-07-22T14:44:23Z</time>
      </trkpt>
      <trkpt lat="49.83004" lon="0.62378">
        <ele>11</ele>
        <time>2016-07-22T14:46:23Z</time>
      </trkpt>
      <trkpt lat="49.83092" lon="0.62236">
        <ele>12</ele>
        <time>2016-07-22T14:48:23Z</time>
      </trkpt>
      <trkpt lat="49.83145" lon="0.6218">
        <ele>10</ele>
        <time>2016-07-22T14:50:23Z</time>
      </trkpt>
      <trkpt lat="49.83181" lon="0.6209">
        <ele>12</ele>
        <time>2016-07-22T14:52:23Z</time>
      </trkpt>
      <trkpt lat="49.83352" lon="0.61893">
        <ele>9</ele>
        <time>2016-07-22T14:54:23Z</time>
      </trkpt>
      <trkpt lat="49.83447" lon="0.61781">
        <ele>12</ele>
        <time>2016-07-22T14:56:23Z</time>
      </trkpt>
      <trkpt lat="49.83715" lon="0.61571">
        <ele>7</ele>
        <time>2016-07-22T14:58:23Z</time>
      </trkpt>
      <trkpt lat="49.83762" lon="0.61545">
        <ele>6</ele>
        <time>2016-07-22T15:00:23Z</time>
      </trkpt>
      <trkpt lat="49.83912" lon="0.61416">
        <ele>6</ele>
        <time>2016-07-22T15:02:23Z</time>
      </trkpt>
      <trkpt lat="49.83981" lon="0.61301">
        <ele>8</ele>
        <time>2016-07-22T15:04:23Z</time>
      </trkpt>
      <trkpt lat="49.8405" lon="0.6118">
        <ele>8</ele>
        <time>2016-07-22T15:06:23Z</time>
      </trkpt>
      <trkpt lat="49.84108" lon="0.61073">
        <ele>12</ele>
        <time>2016-07-22T15:08:23Z</time>
      </trkpt>
      <trkpt lat="49.84246" lon="0.60974">
        <ele>13</ele>
        <time>2016-07-22T15:10:23Z</time>
      </trkpt>
      <trkpt lat="49.84415" lon="0.60919">
        <ele>7</ele>
        <time>2016-07-22T15:12:23Z</time>
      </trkpt>
      <trkpt lat="49.84573" lon="0.60704">
        <ele>6</ele>
        <time>2016-07-22T15:14:23Z</time>
      </trkpt>
      <trkpt lat="49.84819" lon="0.60481">
        <ele>7</ele>
        <time>2016-07-22T15:16:23Z</time>
      </trkpt>
      <trkpt lat="49.84869" lon="0.60434">
        <ele>7</ele>
        <time>2016-07-22T15:18:23Z</time>
      </trkpt>
      <trkpt lat="49.85237" lon="0.60176">
        <ele>7</ele>
        <time>2016-07-22T15:20:23Z</time>
      </trkpt>
      <trkpt lat="49.85287" lon="0.60305">
        <ele>3</ele>
        <time>2016-07-22T15:22:23Z</time>
      </trkpt>
      <trkpt lat="49.85321" lon="0.60423">
        <ele>3</ele>
        <time>2016-07-22T15:24:23Z</time>
      </trkpt>
      <trkpt lat="49.85356" lon="0.60515">
        <ele>2</ele>
        <time>2016-07-22T15:26:23Z</time>
      </trkpt>
      <trkpt lat="49.85388" lon="0.60565">
        <ele>3</ele>
        <time>2016-07-22T15:28:23Z</time>
      </trkpt>
      <trkpt lat="49.85481" lon="0.60811">
        <ele>3</ele>
        <time>2016-07-22T15:30:23Z</time>
      </trkpt>
      <trkpt lat="49.85523" lon="0.60771">
        <ele>3</ele>
        <time>2016-07-22T15:32:23Z</time>
      </trkpt>
      <trkpt lat="49.85359" lon="0.60301">
        <ele>3</ele>
        <time>2016-07-22T15:34:23Z</time>
      </trkpt>
    </trkseg>
  </trk>
</gpx>